Stations météo

réclame
Mon MeteoGroup
Trollenhagen, Allemagne (10281): Température de l'air & dewpoint: 13.07.2018 19:00:00 - 19.07.2018 19:00:00 (CEST)Trollenhagen, Allemagne (10281): Température de l'air 5cm & Température de l'air -5cm: 13.07.2018 19:00:00 - 19.07.2018 19:00:00 (CEST)Trollenhagen, Allemagne (10281): Température de l'air -20cm & Température de l'air -100cm: 13.07.2018 19:00:00 - 19.07.2018 19:00:00 (CEST)Trollenhagen, Allemagne (10281): Vitesse du vent & gusts: 13.07.2018 19:00:00 - 19.07.2018 19:00:00 (CEST)Trollenhagen, Allemagne (10281): Direction du vent: 13.07.2018 19:00:00 - 19.07.2018 19:00:00 (CEST)Trollenhagen, Allemagne (10281): reduced air pressure: 13.07.2018 19:00:00 - 19.07.2018 19:00:00 (CEST)Trollenhagen, Allemagne (10281): Ensoleillement: 13.07.2018 19:00:00 - 19.07.2018 19:00:00 (CEST)Trollenhagen, Allemagne (10281): Quantités de précipitations: 13.07.2018 19:00:00 - 19.07.2018 19:00:00 (CEST)
Date & Time tt [°C] td [°C] tt 5cm [°C] tt -5cm [°C] tt -20cm [°C] tt -100cm [°C] ff [km/h] ff [knt] fx [km/h] fx [knt] dd ppp [hPa] sd [min] rr [mm]
19.07.2018 19:00:00 22,9 9,6 23,8 24,0 22,4 18,3 21 11 37 20 NW 1016,3 60 0,0
19.07.2018 18:00:00 23,6 8,2 25,3 25,4 22,3 18,3 24 13 40 22 WNW 1016,2 60 0,0
19.07.2018 17:00:00 23,7 11,1 26,7 26,0 21,9 18,3 27 14 40 22 WNW 1016,4 60 0,0
19.07.2018 16:00:00 24,4 10,7 27,9 26,0 21,4 18,3 21 12 34 19 NW 1016,4 60 0,0
19.07.2018 15:00:00 24,2 10,5 28,2 25,2 20,9 18,3 25 14 41 22 NW 1016,5 57 0,0
19.07.2018 14:00:00 22,7 10,5 24,7 22,5 20,6 18,4 26 14 39 21 NW 1016,7 4 0,0
19.07.2018 13:00:00 22,4 11,2 25,0 23,0 20,2 18,4 22 12 33 18 NNW 1016,8 17 0,0
19.07.2018 12:00:00 20,7 12,7 22,5 21,7 20,0 18,4 21 11 32 17 NW 1016,8 0 0,0
19.07.2018 11:00:00 19,2 15,9 20,1 20,4 19,8 18,4 18 10 29 16 NNW 1016,7 0 0,0
19.07.2018 10:00:00 18,1 16,3 18,7 19,8 19,7 18,3 19 11 28 15 NW 1016,5 0 0,0
19.07.2018 09:00:00 17,9 16,8 18,4 19,0 19,7 18,3 16 9 24 13 NW 1016,3 0 0,1
19.07.2018 08:00:00 17,3 16,9 17,2 18,5 19,8 18,3 16 9 28 15 NW 1016,1 0 0,7
19.07.2018 07:00:00 17,4 17,1 17,2 18,1 20,0 18,3 19 10 29 16 NNW 1015,8 0 2,0
19.07.2018 06:00:00 17,5 17,2 17,0 18,1 20,1 18,3 22 12 37 20 NNW 1015,5 0 1,8
19.07.2018 05:00:00 17,4 17,0 17,0 18,1 20,3 18,3 14 7 25 13 NW 1015,4 0 1,3
19.07.2018 04:00:00 17,8 16,4 17,2 18,0 20,6 18,3 14 8 26 14 WNW 1015,2 0 0,0
19.07.2018 03:00:00 17,5 15,5 16,1 17,7 20,9 18,3 19 10 29 16 WNW 1015,1 0 0,0
19.07.2018 02:00:00 18,1 15,2 16,6 18,1 21,3 18,3 19 10 28 15 WNW 1015,2 0 0,0
19.07.2018 01:00:00 18,4 14,5 16,8 18,6 21,8 18,3 17 9 26 14 WNW 1015,3 0 0,0
19.07.2018 00:00:00 19,5 14,2 18,2 19,5 22,2 18,3 19 10 28 15 WNW 1015,1 0 0,0
18.07.2018 23:00:00 19,3 14,0 17,6 20,0 22,6 18,3 16 9 30 16 WNW 1014,9 0 0,0
18.07.2018 22:00:00 20,6 15,2 19,6 21,3 23,0 18,3 16 9 29 15 WNW 1014,9 0 0,0
18.07.2018 21:00:00 21,7 15,3 20,6 22,5 23,3 18,3 23 12 33 18 WNW 1014,9 24 0,0
18.07.2018 20:00:00 23,2 15,8 23,6 24,2 23,5 18,3 25 14 35 19 NW 1014,4 58 0,0
18.07.2018 19:00:00 24,1 15,5 25,4 25,3 23,5 18,3 24 13 39 21 NW 1014,2 49 0,0
18.07.2018 18:00:00 24,3 15,5 26,3 26,5 23,4 18,3 27 14 38 21 NW 1014,1 52 0,0
18.07.2018 17:00:00 24,6 15,5 27,9 26,1 23,2 18,3 23 12 42 23 NW 1014,1 25 0,0
18.07.2018 16:00:00 24,2 15,5 26,4 27,4 22,8 18,3 24 13 39 21 WNW 1013,9 46 0,0
18.07.2018 15:00:00 24,3 15,5 28,9 27,2 22,4 18,3 25 14 41 22 NW 1013,9 33 0,0
18.07.2018 14:00:00 23,4 16,2 25,7 26,4 21,9 18,2 25 13 35 19 WNW 1013,9 40 0,0
18.07.2018 13:00:00 23,0 16,0 27,3 24,8 21,4 18,2 25 13 36 19 WNW 1014,1 12 0,0
18.07.2018 12:00:00 21,9 17,1 25,0 23,4 21,2 18,2 21 11 30 16 WNW 1014,0 1 0,0
18.07.2018 11:00:00 19,7 16,6 20,9 22,2 21,0 18,2 23 12 34 18 WNW 1014,2 4 0,0
18.07.2018 10:00:00 19,6 17,3 20,7 21,1 20,9 18,2 23 12 29 16 WNW 1013,9 0 0,0
18.07.2018 09:00:00 19,3 18,4 19,7 20,5 20,9 18,2 16 9 24 13 WNW 1013,6 0 0,0
18.07.2018 08:00:00 18,8 17,7 18,7 19,7 21,0 18,2 15 8 22 12 NW 1013,3 0 0,0
18.07.2018 07:00:00 18,1 17,6 17,7 19,0 21,2 18,1 13 7 17 9 NW 1013,0 0 0,1
18.07.2018 06:00:00 17,9 17,2 17,4 18,8 21,5 18,1 14 8 22 12 NW 1012,6 0 0,0
18.07.2018 05:00:00 17,9 17,3 17,4 19,0 21,8 18,1 13 7 24 13 WNW 1012,4 0 0,0
18.07.2018 04:00:00 18,1 17,3 17,4 19,2 22,2 18,1 11 6 19 10 NW 1012,1 0 0,0
18.07.2018 03:00:00 18,2 17,3 17,5 19,4 22,6 18,1 15 8 28 15 NW 1012,4 0 2,7
18.07.2018 02:00:00 19,0 16,5 18,0 20,5 23,1 18,0 23 12 33 18 NNW 1012,2 0 0,0
18.07.2018 01:00:00 19,6 16,4 18,6 21,0 23,5 18,0 11 6 16 9 NW 1012,3 0 0,0
18.07.2018 00:00:00 19,6 17,0 18,7 21,7 23,9 18,0 10 5 13 7 WNW 1012,2 0 0,0
17.07.2018 23:00:00 19,7 17,1 19,0 22,4 24,3 18,0 9 5 11 6 WNW 1011,9 0 0,0
17.07.2018 22:00:00 20,4 16,9 19,5 23,3 24,8 18,0 7 4 9 5 NW 1012,1 0 0,0
17.07.2018 21:00:00 21,0 16,9 20,7 24,3 25,2 18,0 8 5 13 7 NNE 1011,8 0 0,0
17.07.2018 20:00:00 21,7 16,7 21,7 25,5 25,6 18,0 10 5 16 9 NNE 1012,0 0 0,0
17.07.2018 19:00:00 22,5 16,7 22,8 26,8 26,0 18,0 13 7 23 13 NNE 1011,9 0 0,0
17.07.2018 18:00:00 23,4 16,3 24,4 28,6 26,1 17,9 18 10 29 16 NE 1011,8 0 0,0
17.07.2018 17:00:00 24,7 15,2 26,3 30,8 25,9 17,9 17 9 36 19 NNE 1011,7 2 0,0
17.07.2018 16:00:00 26,2 13,8 29,8 32,4 25,5 17,9 23 12 32 17 N 1011,6 5 0,0
17.07.2018 15:00:00 25,5 14,4 28,8 32,0 25,0 17,9 20 11 27 15 N 1011,8 0 0,0
17.07.2018 14:00:00 25,5 14,3 29,8 32,7 24,3 17,9 18 10 29 15 N 1011,8 1 0,0
17.07.2018 13:00:00 24,7 14,8 29,6 32,5 23,3 17,9 16 9 29 16 N 1012,1 28 0,0
17.07.2018 12:00:00 24,8 14,7 30,1 31,3 22,4 17,9 17 9 29 16 N 1012,1 44 0,0
17.07.2018 11:00:00 23,8 14,9 29,1 28,3 21,6 17,8 16 9 24 13 N 1012,1 51 0,0
17.07.2018 10:00:00 23,4 15,4 28,0 25,9 21,0 17,8 14 8 23 13 NNE 1012,3 55 0,0
17.07.2018 09:00:00 21,2 16,0 22,8 21,8 20,9 17,8 8 5 16 9 N 1012,4 52 0,0
17.07.2018 08:00:00 19,5 16,0 20,1 20,1 20,9 17,8 10 5 13 7 NW 1012,3 28 0,0
17.07.2018 07:00:00 18,5 15,3 17,7 19,3 21,2 17,7 9 5 13 7 NNW 1012,2 13 0,0
17.07.2018 06:00:00 16,4 15,0 16,0 18,4 21,5 17,7 6 3 7 4 NW 1012,1 0 0,0
17.07.2018 05:00:00 16,4 13,8 14,2 18,4 22,0 17,7 4 2 8 4 NNW 1012,3 0 0,0
17.07.2018 04:00:00 17,2 14,2 15,4 19,1 22,4 17,7 5 3 8 4 W 1012,4 0 0,0
17.07.2018 03:00:00 17,5 14,4 15,7 19,8 22,8 17,7 6 3 10 6 N 1012,6 0 0,0
17.07.2018 02:00:00 17,9 14,6 17,0 20,5 23,3 17,7 9 5 11 6 N 1012,8 0 0,0
17.07.2018 01:00:00 17,4 14,0 16,7 20,6 23,9 17,7 5 3 10 5 N 1012,9 0 0,0
17.07.2018 00:00:00 17,7 13,5 15,9 21,3 24,6 17,6 2 1 14 7 NNE 1013,1 0 0,0
16.07.2018 23:00:00 19,1 13,7 17,4 22,4 25,4 17,6 11 6 19 10 NE 1013,2 0 0,0
16.07.2018 22:00:00 20,0 12,8 18,1 24,3 26,1 17,6 9 5 16 9 ENE 1013,1 0 0,0
16.07.2018 21:00:00 23,1 12,9 22,4 26,8 26,6 17,6 15 8 27 15 ENE 1012,4 55 0,0
16.07.2018 20:00:00 24,6 13,0 25,5 29,6 26,9 17,6 22 12 31 17 ENE 1012,2 60 0,0
16.07.2018 19:00:00 26,2 13,0 28,2 32,1 26,9 17,6 18 10 31 17 ENE 1012,2 60 0,0
16.07.2018 18:00:00 26,9 13,1 30,1 34,2 26,6 17,6 21 11 30 16 ENE 1012,2 60 0,0
16.07.2018 17:00:00 27,9 13,8 32,6 35,4 26,1 17,6 15 8 31 17 NE 1012,2 44 0,0
16.07.2018 16:00:00 27,8 11,4 33,4 37,2 25,2 17,6 14 8 27 15 ENE 1012,6 60 0,0
16.07.2018 15:00:00 27,4 11,3 32,0 36,0 24,2 17,6 10 5 21 11 NE 1013,3 48 0,0
16.07.2018 14:00:00 26,5 11,8 31,0 36,1 22,9 17,6 6 3 19 11 E 1013,8 60 0,0
16.07.2018 13:00:00 26,0 8,6 30,5 33,7 21,5 17,6 6 3 19 10 NE 1014,3 60 0,0
16.07.2018 12:00:00 24,4 12,1 29,5 31,7 20,2 17,6 10 6 21 11 WNW 1014,7 60 0,0
16.07.2018 11:00:00 23,2 13,6 28,5 27,3 19,1 17,6 9 5 17 9 NNW 1014,8 60 0,0
16.07.2018 10:00:00 21,4 14,8 25,6 24,2 18,3 17,6 8 4 13 7 WNW 1015,2 60 0,0
16.07.2018 09:00:00 19,0 15,0 22,0 20,7 17,9 17,6 6 3 9 5 WSW 1015,4 60 0,0
16.07.2018 08:00:00 16,0 13,7 16,1 17,0 17,8 17,6 4 2 9 5 W 1015,7 57 0,0
16.07.2018 07:00:00 14,4 13,4 13,9 15,1 18,0 17,6 8 4 9 5 WSW 1016,0 60 0,0
16.07.2018 06:00:00 13,5 12,6 11,2 13,8 18,4 17,6 3 2 6 4 SW 1016,1 15 0,0
16.07.2018 05:00:00 13,1 13,1 9,6 14,0 18,9 17,6 0 0 7 4 N 1016,2 0 0,0
16.07.2018 04:00:00 13,6 13,2 9,4 14,5 19,4 17,6 6 3 8 4 WSW 1016,4 0 0,0
16.07.2018 03:00:00 13,9 13,1 10,0 15,2 19,9 17,6 5 3 6 3 SW 1016,6 0 0,0
16.07.2018 02:00:00 14,9 13,1 10,7 16,0 20,5 17,6 0 0 3 2 N 1016,5 0 0,0
16.07.2018 01:00:00 15,7 13,4 12,3 16,8 21,1 17,6 3 2 7 4 W 1016,8 0 0,0
16.07.2018 00:00:00 15,7 13,2 12,6 17,7 21,7 17,6 5 3 9 5 N 1016,7 0 0,0
15.07.2018 23:00:00 16,2 13,4 12,9 19,0 22,4 17,6 9 5 9 5 N 1016,5 0 0,0
15.07.2018 22:00:00 17,2 13,3 13,9 20,6 23,0 17,6 8 5 13 7 N 1016,6 0 0,0
15.07.2018 21:00:00 19,9 13,3 18,1 22,9 23,4 17,6 10 6 24 13 N 1016,2 56 0,0
15.07.2018 20:00:00 21,8 12,8 22,6 26,1 23,5 17,6 18 10 28 15 N 1016,0 60 0,0
15.07.2018 19:00:00 23,3 13,0 25,7 28,3 23,3 17,6 16 9 27 14 N 1015,7 60 0,0
15.07.2018 18:00:00 23,9 13,3 27,5 29,8 22,8 17,6 13 7 27 15 NW 1016,0 58 0,0
15.07.2018 17:00:00 24,0 13,5 28,3 27,8 22,4 17,6 14 8 26 14 NNW 1016,3 16 0,0
15.07.2018 16:00:00 22,5 13,2 25,2 30,5 21,7 17,6 20 11 36 19 N 1016,6 38 0,0
15.07.2018 15:00:00 22,4 11,5 24,5 29,3 20,8 17,6 14 8 23 13 N 1017,1 39 0,0
15.07.2018 14:00:00 22,5 11,6 24,8 27,5 19,9 17,6 13 7 21 11 NNW 1017,3 28 0,0
15.07.2018 13:00:00 21,6 10,6 24,1 26,3 19,2 17,6 9 5 23 13 NNW 1017,6 24 0,0
15.07.2018 12:00:00 21,7 11,8 27,5 24,1 18,6 17,6 15 8 25 13 NW 1017,9 22 0,0
15.07.2018 11:00:00 19,6 12,3 21,7 21,8 18,0 17,6 14 8 26 14 NW 1018,0 20 0,0
15.07.2018 10:00:00 18,9 13,4 21,9 20,7 17,5 17,6 12 7 21 11 NNW 1018,0 29 0,0
15.07.2018 09:00:00 17,6 13,9 19,9 19,6 17,0 17,6 14 8 21 12 NW 1018,1 52 0,0
15.07.2018 08:00:00 15,5 13,6 17,5 16,7 16,8 17,6 10 5 14 7 WNW 1018,1 60 0,0
15.07.2018 07:00:00 13,6 11,9 12,9 14,1 17,0 17,6 7 4 13 7 W 1018,1 60 0,0
15.07.2018 06:00:00 12,3 11,0 10,8 12,5 17,3 17,6 10 6 12 7 W 1017,9 17 0,0
15.07.2018 05:00:00 11,6 10,4 9,5 12,5 17,8 17,6 10 6 13 7 W 1017,9 0 0,0
15.07.2018 04:00:00 11,9 10,5 9,9 12,9 18,2 17,6 11 6 13 7 WSW 1018,0 0 0,0
15.07.2018 03:00:00 12,3 10,5 9,7 13,4 18,8 17,6 9 5 10 6 WSW 1018,1 0 0,0
15.07.2018 02:00:00 12,4 10,3 9,2 14,0 19,4 17,6 8 5 12 6 WSW 1018,4 0 0,0
15.07.2018 01:00:00 13,0 10,5 9,0 14,8 20,0 17,6 8 4 10 5 WSW 1018,5 0 0,0
15.07.2018 00:00:00 14,2 10,7 10,0 15,8 20,6 17,6 6 3 8 4 WSW 1018,4 0 0,0
14.07.2018 23:00:00 14,7 10,7 11,5 17,0 21,2 17,6 5 3 12 6 W 1018,6 0 0,0
14.07.2018 22:00:00 15,2 10,2 11,8 18,7 21,8 17,6 10 5 22 12 WNW 1018,8 0 0,0
14.07.2018 21:00:00 17,3 10,7 17,0 20,6 22,2 17,6 18 10 29 15 NW 1018,4 0 0,0
14.07.2018 20:00:00 17,9 11,0 18,3 22,2 22,5 17,6 13 7 31 17 NW 1018,3 7 0,0
14.07.2018 19:00:00 18,7 11,0 20,4 25,0 22,5 17,6 20 11 29 16 NW 1018,2 41 0,0
14.07.2018 18:00:00 19,7 10,9 22,8 27,4 22,2 17,6 23 12 35 19 WNW 1018,2 60 0,0
14.07.2018 17:00:00 20,0 11,5 23,8 27,6 21,7 17,6 22 12 37 20 WNW 1018,5 47 0,0
14.07.2018 16:00:00 20,3 12,0 24,3 27,1 21,3 17,6 22 12 34 18 WNW 1018,7 15 0,0
14.07.2018 15:00:00 18,7 11,9 21,9 25,6 20,8 17,7 19 10 32 17 WNW 1019,3 1 0,0
14.07.2018 14:00:00 19,2 12,2 23,1 28,0 20,0 17,7 25 14 41 22 WNW 1019,5 42 0,0
14.07.2018 13:00:00 20,2 12,2 24,4 25,6 19,3 17,7 18 10 37 20 WNW 1019,3 43 0,0
14.07.2018 12:00:00 19,3 12,2 24,8 23,3 18,6 17,7 21 11 41 22 NW 1019,3 48 0,0
14.07.2018 11:00:00 18,6 12,5 23,4 21,9 18,0 17,7 23 12 31 17 WNW 1019,2 26 0,0
14.07.2018 10:00:00 18,0 12,9 22,1 19,6 17,7 17,7 19 10 29 16 WNW 1019,3 11 0,0
14.07.2018 09:00:00 16,4 13,2 17,4 17,5 17,6 17,7 21 11 30 16 WNW 1019,0 0 0,0
14.07.2018 08:00:00 15,6 13,8 16,1 16,5 17,6 17,7 17 9 29 15 WNW 1018,8 2 0,0
14.07.2018 07:00:00 15,1 13,9 14,8 15,5 17,7 17,6 19 11 25 13 NW 1018,5 44 0,0
14.07.2018 06:00:00 14,0 13,5 13,2 14,3 18,0 17,6 14 8 22 12 W 1018,4 3 0,0
14.07.2018 05:00:00 14,1 13,5 12,9 14,4 18,4 17,6 18 10 25 14 W 1018,2 0 0,0
14.07.2018 04:00:00 15,0 13,9 13,7 14,9 18,7 17,6 21 11 26 14 W 1018,1 0 0,0
14.07.2018 03:00:00 15,3 14,1 13,9 15,3 19,2 17,6 17 9 29 15 WNW 1017,9 0 0,0
14.07.2018 02:00:00 15,7 13,9 14,2 15,7 19,6 17,6 16 9 25 14 WNW 1018,0 0 0,0
14.07.2018 01:00:00 15,8 13,3 13,6 16,1 20,1 17,6 13 7 19 10 WNW 1017,9 0 0,0
14.07.2018 00:00:00 16,9 13,4 13,6 16,9 20,6 17,7 9 5 23 12 WNW 1017,7 0 0,0
13.07.2018 23:00:00 18,9 13,2 16,3 17,5 21,2 17,7 14 7 29 16 WNW 1017,6 0 0,0
13.07.2018 22:00:00 20,7 11,7 18,3 18,7 21,8 17,7 17 9 23 13 WNW 1017,2 0 0,0
13.07.2018 21:00:00 22,2 11,7 20,1 20,5 22,3 17,7 16 9 27 14 WNW 1016,9 52 0,0
13.07.2018 20:00:00 24,5 13,4 24,3 23,0 22,5 17,7 17 9 30 16 WNW 1016,3 60 0,0
13.07.2018 19:00:00 25,6 13,2 26,7 24,4 22,6 17,7 22 12 33 18 NNW 1015,7 60 0,0

tt = Température de l'air
td = dewpoint
tt 5cm = Température de l'air 5cm
tt -5cm = Température de l'air -5cm
tt -20cm = Température de l'air -20cm
tt -100cm = Température de l'air -100cm
ff = Vitesse du vent
fx = gusts
dd = Direction du vent
ppp = reduced air pressure
sd = Ensoleillement
rr = Quantités de précipitations

stations d'obs. à proximité